Time;durP1;ratioP1;P1;durP2;ratioP2;P2;SDS_P1;SDS_P2;PMS_P1;PMS_P2;Temp;Humidity;BMP_temperature;BMP_pressure;BME280_temperature;BME280_humidity;BME280_pressure;Samples;Min_cycle;Max_cycle;Signal;HPM_P1;HPM_P2
2021/06/04 00:01:20;;;;;;;54.70;31.93;;;17.00;99.90;;;;;;5063727;28;20180;-67
2021/06/04 00:03:49;;;;;;;54.73;30.07;;;17.00;99.90;;;;;;5082960;28;20191;-67
2021/06/04 00:06:17;;;;;;;49.57;29.73;;;17.00;99.90;;;;;;5080833;28;20180;-67
2021/06/04 00:08:48;;;;;;;51.47;31.50;;;17.00;99.90;;;;;;5081037;28;20185;-67
2021/06/04 00:11:19;;;;;;;52.03;29.87;;;17.00;99.90;;;;;;5079525;28;20260;-67
2021/06/04 00:13:49;;;;;;;52.77;30.60;;;16.90;99.90;;;;;;5086498;28;20193;-66
2021/06/04 00:16:21;;;;;;;52.63;30.57;;;16.90;99.90;;;;;;5085737;28;20184;-67
2021/06/04 00:18:50;;;;;;;61.60;33.43;;;16.80;99.90;;;;;;5083988;28;20486;-66
2021/06/04 00:21:20;;;;;;;54.73;32.70;;;16.70;99.90;;;;;;5077361;28;20386;-67
2021/06/04 00:23:48;;;;;;;59.10;32.03;;;16.70;99.90;;;;;;5081463;28;20461;-67
2021/06/04 00:26:17;;;;;;;50.17;30.43;;;16.60;99.90;;;;;;5063402;28;20168;-66
2021/06/04 00:28:45;;;;;;;57.27;32.50;;;16.60;99.90;;;;;;5079946;28;20189;-67
2021/06/04 00:31:13;;;;;;;50.17;30.50;;;16.60;99.90;;;;;;5082452;28;20180;-67
2021/06/04 00:33:45;;;;;;;56.43;30.43;;;16.60;99.90;;;;;;5086791;28;20186;-67
2021/06/04 00:36:13;;;;;;;57.20;33.10;;;16.50;99.90;;;;;;5086937;28;20199;-67
2021/06/04 00:38:42;;;;;;;53.73;32.20;;;16.50;99.90;;;;;;5082242;28;20217;-66
2021/06/04 00:41:15;;;;;;;50.93;30.57;;;16.50;99.90;;;;;;5080893;28;20257;-67
2021/06/04 00:43:43;;;;;;;51.23;30.63;;;16.40;99.90;;;;;;5059071;28;20181;-67
2021/06/04 00:46:11;;;;;;;60.17;33.33;;;16.40;99.90;;;;;;5076050;28;20365;-67
2021/06/04 00:48:39;;;;;;;63.13;33.03;;;16.40;99.90;;;;;;5085838;28;20245;-67
2021/06/04 00:51:12;;;;;;;52.40;31.27;;;16.40;99.90;;;;;;5079114;28;20188;-67
2021/06/04 00:53:40;;;;;;;52.87;30.83;;;16.40;99.90;;;;;;5085581;28;20220;-67
2021/06/04 00:56:08;;;;;;;50.23;30.63;;;16.30;99.90;;;;;;5084943;28;20176;-67
2021/06/04 00:58:38;;;;;;;59.07;33.17;;;16.30;99.90;;;;;;5083336;28;20234;-67
2021/06/04 01:01:35;;;;;;;57.87;33.13;;;16.30;99.90;;;;;;5079040;28;20249;-67
2021/06/04 01:04:07;;;;;;;54.00;31.20;;;16.30;99.90;;;;;;5081156;28;20234;-66
2021/06/04 01:06:47;;;;;;;57.07;31.87;;;16.20;99.90;;;;;;5080342;28;20184;-66
2021/06/04 01:09:33;;;;;;;51.73;30.67;;;16.20;99.90;;;;;;5080861;28;20183;-67
2021/06/04 01:12:32;;;;;;;54.53;32.10;;;16.20;99.90;;;;;;5072807;28;20374;-66
2021/06/04 01:15:09;;;;;;;60.40;33.43;;;16.10;99.90;;;;;;5080204;28;20229;-67
2021/06/04 01:17:45;;;;;;;57.20;32.43;;;16.10;99.90;;;;;;5079119;28;20179;-66
2021/06/04 01:20:17;;;;;;;56.57;31.90;;;16.10;99.90;;;;;;5060288;28;20204;-66
2021/06/04 01:23:07;;;;;;;52.83;30.60;;;16.00;99.90;;;;;;5074290;28;20187;-66
2021/06/04 01:25:43;;;;;;;52.50;29.87;;;16.00;99.90;;;;;;5076012;28;20245;-67
2021/06/04 01:28:16;;;;;;;62.00;34.43;;;15.90;99.90;;;;;;5083553;28;20277;-67
2021/06/04 01:30:48;;;;;;;58.37;34.90;;;15.90;99.90;;;;;;5082243;28;20184;-67
2021/06/04 01:33:19;;;;;;;63.20;33.30;;;15.90;99.90;;;;;;5079348;28;20208;-67
2021/06/04 01:35:51;;;;;;;64.13;36.03;;;15.90;99.90;;;;;;5074408;28;20243;-67
2021/06/04 01:38:27;;;;;;;63.93;34.97;;;15.80;99.90;;;;;;5081016;28;20247;-67
2021/06/04 01:41:01;;;;;;;60.70;33.43;;;15.80;99.90;;;;;;5076934;28;20180;-67
2021/06/04 01:43:32;;;;;;;66.77;35.53;;;15.80;99.90;;;;;;5078804;28;20199;-67
2021/06/04 01:46:04;;;;;;;66.03;34.97;;;15.70;99.90;;;;;;5078358;28;20275;-67
2021/06/04 01:48:35;;;;;;;60.20;33.77;;;15.70;99.90;;;;;;5076910;28;20196;-64
2021/06/04 01:51:08;;;;;;;55.73;33.03;;;15.70;99.90;;;;;;5078334;28;20173;-67
2021/06/04 01:53:48;;;;;;;54.97;33.03;;;15.70;99.90;;;;;;5079953;28;20338;-67
2021/06/04 01:56:24;;;;;;;54.50;31.97;;;15.60;99.90;;;;;;5084264;28;20192;-67
2021/06/04 01:58:58;;;;;;;61.13;34.17;;;15.50;99.90;;;;;;5083445;28;20215;-67
2021/06/04 02:01:28;;;;;;;60.40;33.27;;;15.50;99.90;;;;;;5077095;28;20243;-67
2021/06/04 02:03:58;;;;;;;55.07;31.97;;;15.50;99.90;;;;;;5082020;28;20192;-67
2021/06/04 02:06:26;;;;;;;60.80;32.67;;;15.50;99.90;;;;;;5072406;28;20371;-67
2021/06/04 02:08:59;;;;;;;65.07;33.63;;;15.50;99.90;;;;;;5084258;28;20180;-67
2021/06/04 02:11:32;;;;;;;58.53;32.33;;;15.50;99.90;;;;;;5084077;28;20192;-67
2021/06/04 02:14:04;;;;;;;58.20;33.13;;;15.50;99.90;;;;;;5083519;28;20319;-67
2021/06/04 02:16:55;;;;;;;60.73;33.50;;;15.50;99.90;;;;;;5077627;28;20211;-67
2021/06/04 02:19:44;;;;;;;62.93;34.37;;;15.50;99.90;;;;;;5076253;28;20224;-67
2021/06/04 02:22:18;;;;;;;58.63;32.87;;;15.60;99.90;;;;;;5075060;28;20185;-67
2021/06/04 02:24:58;;;;;;;58.60;33.60;;;15.60;99.90;;;;;;5080848;28;20177;-66
2021/06/04 02:27:33;;;;;;;62.07;33.03;;;15.60;99.90;;;;;;5063711;28;20192;-67
2021/06/04 02:30:12;;;;;;;59.53;35.40;;;15.60;99.90;;;;;;5081111;28;20176;-67
2021/06/04 02:32:47;;;;;;;59.53;34.97;;;15.60;99.90;;;;;;5074350;28;20177;-67
2021/06/04 02:35:19;;;;;;;61.37;34.10;;;15.60;99.90;;;;;;5080186;28;20198;-67
2021/06/04 02:37:53;;;;;;;66.30;35.80;;;15.60;99.90;;;;;;5075995;28;20225;-67
2021/06/04 02:40:27;;;;;;;66.57;35.43;;;15.60;99.90;;;;;;5071313;28;20396;-67
2021/06/04 02:43:01;;;;;;;63.77;33.40;;;15.60;99.90;;;;;;5076851;28;20172;-67
2021/06/04 02:45:32;;;;;;;59.33;32.80;;;15.50;99.90;;;;;;5083560;28;20203;-66
2021/06/04 02:48:03;;;;;;;58.33;32.67;;;15.50;99.90;;;;;;5062839;28;20214;-67
2021/06/04 02:50:37;;;;;;;63.37;33.53;;;15.50;99.90;;;;;;5082748;28;20184;-67
2021/06/04 02:53:22;;;;;;;57.20;32.27;;;15.40;99.90;;;;;;5075867;28;20184;-67
2021/06/04 02:56:14;;;;;;;60.10;33.23;;;15.40;99.90;;;;;;5038738;28;20284;-67
2021/06/04 02:58:48;;;;;;;60.73;31.67;;;15.40;99.90;;;;;;5039285;28;20214;-66
2021/06/04 03:01:16;;;;;;;56.77;32.37;;;15.30;99.90;;;;;;5041203;28;20247;-67
2021/06/04 03:03:48;;;;;;;58.73;31.73;;;15.30;99.90;;;;;;5041966;28;20192;-67
2021/06/04 03:06:17;;;;;;;58.67;32.77;;;15.20;99.90;;;;;;5040166;28;20361;-67
2021/06/04 03:08:46;;;;;;;59.93;32.60;;;15.20;99.90;;;;;;5037978;28;20227;-67
2021/06/04 03:11:16;;;;;;;61.57;33.00;;;15.10;99.90;;;;;;5038449;28;20181;-67
2021/06/04 03:13:47;;;;;;;59.50;32.90;;;15.10;99.90;;;;;;5039807;28;20174;-67
2021/06/04 03:16:19;;;;;;;69.53;36.10;;;15.10;99.90;;;;;;5040423;28;20208;-67
2021/06/04 03:18:50;;;;;;;62.77;33.20;;;15.10;99.90;;;;;;5043107;28;20221;-67
2021/06/04 03:21:20;;;;;;;64.60;32.67;;;15.10;99.90;;;;;;5040174;28;20385;-66
2021/06/04 03:23:49;;;;;;;61.30;33.53;;;15.00;99.90;;;;;;5040781;28;20436;-66
2021/06/04 03:26:20;;;;;;;62.53;34.90;;;15.10;99.90;;;;;;5040708;28;20244;-66
2021/06/04 03:28:52;;;;;;;60.50;33.10;;;15.10;99.90;;;;;;5040680;28;20192;-67
2021/06/04 03:31:22;;;;;;;61.77;32.53;;;15.00;99.90;;;;;;5040546;28;20178;-66
2021/06/04 03:33:51;;;;;;;60.03;32.60;;;15.00;99.90;;;;;;5042009;28;20189;-63
2021/06/04 03:36:22;;;;;;;66.30;34.33;;;15.00;99.90;;;;;;5051385;28;20178;-67
2021/06/04 03:38:50;;;;;;;67.63;35.23;;;15.00;99.90;;;;;;5039917;28;20209;-67
2021/06/04 03:41:20;;;;;;;58.50;31.23;;;15.00;99.90;;;;;;5042832;28;20209;-66
2021/06/04 03:43:50;;;;;;;64.03;33.50;;;14.90;99.90;;;;;;5042482;28;20177;-65
2021/06/04 03:46:18;;;;;;;65.33;33.03;;;14.80;99.90;;;;;;5046720;28;20184;-67
2021/06/04 03:48:47;;;;;;;61.50;32.10;;;14.80;99.90;;;;;;5041523;28;20181;-66
2021/06/04 03:51:18;;;;;;;67.93;35.13;;;14.80;99.90;;;;;;5042184;28;20276;-67
2021/06/04 03:53:47;;;;;;;64.93;34.33;;;14.80;99.90;;;;;;5048572;28;20261;-67
2021/06/04 03:56:16;;;;;;;70.27;36.03;;;14.80;99.90;;;;;;5083130;28;20176;-67
2021/06/04 03:58:44;;;;;;;62.37;32.43;;;14.90;99.90;;;;;;5083655;28;20227;-67
2021/06/04 04:01:20;;;;;;;70.20;35.63;;;14.90;99.90;;;;;;5077632;28;20184;-67
2021/06/04 04:03:49;;;;;;;71.70;34.27;;;14.90;99.90;;;;;;5061365;28;20199;-67
2021/06/04 04:06:17;;;;;;;62.60;33.00;;;14.90;99.90;;;;;;5080356;28;20352;-67
2021/06/04 04:08:45;;;;;;;64.20;33.83;;;14.90;99.90;;;;;;5082135;28;20180;-67
2021/06/04 04:11:13;;;;;;;65.77;35.20;;;14.90;99.90;;;;;;5071956;28;20211;-66
2021/06/04 04:13:41;;;;;;;63.03;33.63;;;14.90;99.90;;;;;;5080905;28;20184;-66
2021/06/04 04:16:09;;;;;;;64.37;34.73;;;15.00;99.90;;;;;;5077702;28;20172;-67
2021/06/04 04:18:39;;;;;;;60.53;33.40;;;15.00;99.90;;;;;;5073834;28;20320;-66
2021/06/04 04:21:08;;;;;;;68.33;34.70;;;15.00;99.90;;;;;;5074802;28;20192;-69
2021/06/04 04:23:42;;;;;;;58.67;32.30;;;15.00;99.90;;;;;;5075859;28;20176;-68
2021/06/04 04:26:12;;;;;;;64.80;33.60;;;15.00;99.90;;;;;;5074543;28;20181;-68
2021/06/04 04:28:45;;;;;;;60.97;33.07;;;15.00;99.90;;;;;;5073427;28;20179;-68
2021/06/04 04:31:17;;;;;;;66.13;33.97;;;15.10;99.90;;;;;;5077497;28;20194;-68
2021/06/04 04:33:46;;;;;;;55.30;32.90;;;15.10;99.90;;;;;;5052147;28;20177;-68
2021/06/04 04:36:17;;;;;;;60.10;33.90;;;15.10;99.90;;;;;;5073228;28;20186;-68
2021/06/04 04:38:45;;;;;;;66.97;34.57;;;15.10;99.90;;;;;;5078817;28;20180;-68
2021/06/04 04:41:14;;;;;;;66.77;31.93;;;15.20;99.90;;;;;;5073537;28;20184;-68
2021/06/04 04:43:45;;;;;;;63.23;31.97;;;15.20;99.90;;;;;;5075831;28;20397;-68
2021/06/04 04:46:15;;;;;;;59.83;32.77;;;15.30;99.90;;;;;;5081774;28;20449;-68
2021/06/04 04:48:44;;;;;;;59.07;33.37;;;15.40;99.90;;;;;;5083408;28;20177;-68
2021/06/04 04:51:16;;;;;;;58.33;32.33;;;15.50;99.90;;;;;;5087307;28;20372;-68
2021/06/04 04:53:45;;;;;;;55.97;32.33;;;15.50;99.90;;;;;;5083152;28;20212;-68
2021/06/04 04:56:14;;;;;;;63.43;33.30;;;15.60;99.90;;;;;;5086253;28;20238;-68
2021/06/04 04:58:42;;;;;;;58.67;34.13;;;15.70;99.90;;;;;;5080129;28;20231;-68
2021/06/04 05:01:11;;;;;;;57.83;32.77;;;15.80;99.90;;;;;;5082635;28;20413;-68
2021/06/04 05:03:40;;;;;;;58.07;32.50;;;15.90;99.90;;;;;;5084304;28;20206;-68
2021/06/04 05:06:09;;;;;;;54.73;31.43;;;16.00;99.90;;;;;;5081268;28;20195;-66
2021/06/04 05:08:39;;;;;;;53.87;29.60;;;16.20;99.90;;;;;;5082291;28;20245;-68
2021/06/04 05:11:07;;;;;;;51.83;29.70;;;16.20;99.90;;;;;;5082768;28;20190;-68
2021/06/04 05:13:36;;;;;;;49.47;28.30;;;16.30;99.90;;;;;;5083262;28;20184;-68
2021/06/04 05:16:04;;;;;;;57.27;30.57;;;16.30;99.90;;;;;;5083756;28;20184;-68
2021/06/04 05:18:33;;;;;;;55.17;30.20;;;16.40;99.90;;;;;;5072406;28;20181;-67
2021/06/04 05:21:03;;;;;;;49.20;30.07;;;16.50;99.90;;;;;;5068358;28;20210;-69
2021/06/04 05:23:31;;;;;;;58.90;30.70;;;16.60;99.90;;;;;;5079023;28;20207;-69
2021/06/04 05:26:00;;;;;;;54.77;31.87;;;16.70;99.90;;;;;;5086594;28;20188;-67
2021/06/04 05:28:29;;;;;;;50.03;28.30;;;16.80;99.90;;;;;;5077630;28;20208;-68
2021/06/04 05:31:01;;;;;;;50.37;30.53;;;17.00;99.90;;;;;;5061876;28;20344;-69
2021/06/04 05:33:33;;;;;;;54.50;30.67;;;17.20;99.90;;;;;;5081211;28;20299;-69
2021/06/04 05:36:03;;;;;;;49.87;29.53;;;17.40;99.90;;;;;;5079609;28;20454;-68
2021/06/04 05:38:31;;;;;;;49.13;29.03;;;17.60;99.90;;;;;;5086681;28;20593;-68
2021/06/04 05:41:01;;;;;;;52.17;28.13;;;17.80;99.90;;;;;;5084094;28;20216;-69
2021/06/04 05:43:32;;;;;;;48.30;27.17;;;17.80;99.90;;;;;;5078605;28;20432;-69
2021/06/04 05:46:01;;;;;;;46.13;26.23;;;17.90;99.90;;;;;;5076146;28;20185;-69
2021/06/04 05:48:29;;;;;;;45.43;26.77;;;18.00;99.90;;;;;;5064804;28;20188;-68
2021/06/04 05:51:01;;;;;;;48.80;25.70;;;18.20;99.90;;;;;;5080527;28;20171;-68
2021/06/04 05:53:33;;;;;;;49.47;28.17;;;18.30;99.90;;;;;;5076999;28;20223;-69
2021/06/04 05:56:04;;;;;;;42.20;25.17;;;18.50;99.90;;;;;;5083941;28;20272;-69
2021/06/04 05:58:32;;;;;;;46.23;26.43;;;18.50;99.90;;;;;;5080140;28;20216;-69
2021/06/04 06:01:04;;;;;;;41.07;25.30;;;18.60;99.90;;;;;;5084801;28;20211;-69
2021/06/04 06:03:34;;;;;;;41.23;24.43;;;18.80;99.90;;;;;;5082165;28;20188;-67
2021/06/04 06:06:03;;;;;;;45.37;24.60;;;18.80;99.90;;;;;;5079115;28;20464;-70
2021/06/04 06:08:31;;;;;;;42.63;23.90;;;18.80;99.90;;;;;;5083312;28;20233;-69
2021/06/04 06:11:01;;;;;;;44.20;24.20;;;18.90;99.90;;;;;;5084301;28;20196;-69
2021/06/04 06:13:29;;;;;;;40.27;22.03;;;19.00;99.90;;;;;;5065009;28;20226;-69
2021/06/04 06:15:57;;;;;;;38.03;22.73;;;19.00;99.90;;;;;;5063142;28;20188;-69
2021/06/04 06:18:26;;;;;;;44.00;24.93;;;19.10;99.90;;;;;;5063220;28;20176;-69
2021/06/04 06:20:54;;;;;;;41.93;23.23;;;19.10;99.90;;;;;;5085321;28;20227;-70
2021/06/04 06:23:26;;;;;;;42.93;23.33;;;19.20;99.90;;;;;;5085423;28;20180;-69
2021/06/04 06:25:58;;;;;;;50.37;26.17;;;19.30;99.90;;;;;;5086186;28;20222;-69
2021/06/04 06:28:32;;;;;;;39.70;23.70;;;19.40;99.90;;;;;;5077090;28;20206;-69
2021/06/04 06:31:01;;;;;;;48.03;25.33;;;19.60;99.90;;;;;;5079477;28;20311;-69
2021/06/04 06:33:29;;;;;;;46.60;24.53;;;19.70;99.90;;;;;;5076609;28;20192;-69
2021/06/04 06:35:59;;;;;;;50.47;26.77;;;19.80;99.90;;;;;;5078650;28;20180;-69
2021/06/04 06:38:28;;;;;;;45.70;24.97;;;19.80;99.90;;;;;;5078791;28;20413;-69
2021/06/04 06:40:59;;;;;;;51.73;26.53;;;19.80;99.90;;;;;;5073945;28;20241;-69
2021/06/04 06:43:31;;;;;;;49.20;25.60;;;19.80;99.90;;;;;;5080163;28;20212;-69
2021/06/04 06:46:00;;;;;;;42.33;24.67;;;19.80;99.90;;;;;;5084231;28;20203;-69
2021/06/04 06:48:30;;;;;;;41.37;23.77;;;20.00;99.90;;;;;;5077285;28;20396;-69
2021/06/04 06:51:00;;;;;;;45.87;25.50;;;20.20;99.90;;;;;;5077040;28;20200;-68
2021/06/04 06:53:28;;;;;;;39.00;21.47;;;20.40;99.90;;;;;;5082917;28;20192;-69
2021/06/04 06:55:57;;;;;;;36.67;22.10;;;20.40;99.90;;;;;;5077272;28;20199;-69
2021/06/04 06:58:27;;;;;;;34.93;19.07;;;20.50;99.90;;;;;;5077589;28;20421;-69
2021/06/04 07:00:55;;;;;;;30.90;19.33;;;20.70;99.90;;;;;;5077100;28;20223;-69
2021/06/04 07:03:27;;;;;;;32.33;18.50;;;20.80;99.90;;;;;;5083414;28;20192;-69
2021/06/04 07:05:57;;;;;;;32.47;20.20;;;20.90;99.90;;;;;;5081782;28;20192;-69
2021/06/04 07:08:25;;;;;;;34.90;20.37;;;21.00;99.90;;;;;;5072518;28;20381;-69
2021/06/04 07:10:53;;;;;;;32.57;19.17;;;21.10;99.90;;;;;;5066583;28;20294;-69
2021/06/04 07:13:25;;;;;;;33.33;18.63;;;21.30;99.90;;;;;;5080327;28;20305;-69
2021/06/04 07:15:59;;;;;;;31.77;18.43;;;21.30;99.90;;;;;;5082198;28;20192;-69
2021/06/04 07:18:27;;;;;;;32.10;19.43;;;21.40;99.90;;;;;;5083366;28;20203;-69
2021/06/04 07:20:55;;;;;;;32.47;17.10;;;21.50;99.90;;;;;;5074598;28;20233;-69
2021/06/04 07:23:25;;;;;;;30.57;19.20;;;21.50;99.90;;;;;;5072087;28;20176;-69
2021/06/04 07:25:53;;;;;;;32.60;19.43;;;21.60;99.90;;;;;;5082362;28;20323;-69
2021/06/04 07:28:23;;;;;;;30.00;18.63;;;21.70;99.90;;;;;;5083172;28;20233;-69
2021/06/04 07:30:55;;;;;;;29.43;18.23;;;21.80;99.90;;;;;;5081791;28;20180;-69
2021/06/04 07:33:26;;;;;;;29.50;18.77;;;21.80;99.90;;;;;;5082621;28;20180;-69
2021/06/04 07:35:56;;;;;;;32.33;19.80;;;21.80;99.90;;;;;;5077426;28;20185;-69
2021/06/04 07:38:24;;;;;;;36.70;19.67;;;21.90;99.90;;;;;;5079371;28;20180;-69
2021/06/04 07:40:52;;;;;;;32.57;19.57;;;22.10;99.90;;;;;;5082845;28;20205;-69
2021/06/04 07:43:23;;;;;;;27.67;18.47;;;22.10;99.90;;;;;;5064882;28;20187;-66
2021/06/04 07:45:52;;;;;;;29.90;17.60;;;22.30;99.90;;;;;;5081145;28;20177;-66
2021/06/04 07:48:21;;;;;;;26.33;15.63;;;22.30;99.90;;;;;;5081003;28;20242;-68
2021/06/04 07:50:52;;;;;;;23.03;14.67;;;22.40;99.90;;;;;;5080310;28;20190;-67
2021/06/04 07:53:23;;;;;;;23.73;13.87;;;22.60;99.90;;;;;;5080889;28;20197;-67
2021/06/04 07:55:51;;;;;;;26.80;14.97;;;22.80;99.90;;;;;;5082074;28;20197;-64
2021/06/04 07:58:20;;;;;;;23.73;15.13;;;23.00;99.90;;;;;;5079641;28;20224;-67
2021/06/04 08:00:48;;;;;;;23.70;15.03;;;23.20;99.90;;;;;;5077219;28;20267;-64
2021/06/04 08:03:22;;;;;;;19.47;14.17;;;23.50;99.90;;;;;;5073268;28;20238;-67
2021/06/04 08:05:50;;;;;;;23.30;14.37;;;23.60;99.90;;;;;;5077011;28;20187;-67
2021/06/04 08:08:20;;;;;;;28.20;15.03;;;23.70;99.90;;;;;;5080791;28;20304;-67
2021/06/04 08:10:48;;;;;;;24.63;14.53;;;23.90;99.90;;;;;;5078821;28;20401;-67
2021/06/04 08:13:19;;;;;;;21.30;14.73;;;24.10;99.90;;;;;;5083520;28;20225;-67
2021/06/04 08:15:51;;;;;;;22.50;16.10;;;24.40;99.90;;;;;;5059729;28;20210;-64
2021/06/04 08:18:21;;;;;;;25.67;16.17;;;24.60;99.90;;;;;;5081692;28;20193;-66
2021/06/04 08:20:50;;;;;;;24.97;17.03;;;24.70;99.90;;;;;;5087811;28;20238;-66
2021/06/04 08:23:22;;;;;;;22.30;15.47;;;24.60;99.90;;;;;;5071942;28;20329;-63
2021/06/04 08:25:55;;;;;;;30.07;15.73;;;24.90;99.90;;;;;;5079702;28;20375;-63
2021/06/04 08:28:23;;;;;;;23.97;15.23;;;25.10;99.90;;;;;;5067346;28;20187;-64
2021/06/04 08:30:51;;;;;;;26.87;15.70;;;25.20;99.90;;;;;;5079615;28;20192;-65
2021/06/04 08:33:28;;;;;;;16.57;12.60;;;25.30;99.90;;;;;;5083005;28;20183;-67
2021/06/04 08:35:57;;;;;;;18.77;12.37;;;25.30;99.90;;;;;;5076067;28;20186;-68
2021/06/04 08:38:29;;;;;;;22.30;13.87;;;25.40;99.90;;;;;;5085053;28;20180;-68
2021/06/04 08:41:01;;;;;;;21.93;13.57;;;25.90;99.90;;;;;;5075597;28;20216;-68
2021/06/04 08:43:44;;;;;;;22.02;13.40;;;25.80;99.90;;;;;;5077322;28;20184;-68
2021/06/04 08:46:18;;;;;;;21.05;12.98;;;25.80;99.90;;;;;;5080017;28;20275;-69
2021/06/04 08:48:50;;;;;;;18.25;11.88;;;26.00;99.90;;;;;;5083876;28;20305;-69
2021/06/04 08:51:24;;;;;;;17.63;10.50;;;26.30;99.90;;;;;;5075993;28;20201;-69
2021/06/04 08:54:13;;;;;;;15.02;10.63;;;26.30;99.90;;;;;;5074492;28;20230;-69
2021/06/04 08:56:49;;;;;;;13.50;10.23;;;26.50;99.90;;;;;;5080563;28;20191;-67
2021/06/04 08:59:18;;;;;;;13.80;9.20;;;26.70;99.90;;;;;;5082639;28;20190;-69
2021/06/04 09:01:52;;;;;;;20.05;10.48;;;26.90;99.90;;;;;;5080764;28;20212;-68
2021/06/04 09:04:25;;;;;;;15.77;11.07;;;27.20;99.90;;;;;;5082258;28;20208;-69
2021/06/04 09:07:00;;;;;;;15.90;10.80;;;27.40;99.90;;;;;;5077035;28;20184;-68
2021/06/04 09:09:34;;;;;;;20.30;14.05;;;27.70;99.90;;;;;;5083690;28;20414;-67
2021/06/04 09:12:10;;;;;;;16.10;11.40;;;27.60;99.90;;;;;;5083223;28;20324;-68
2021/06/04 09:14:40;;;;;;;18.20;12.80;;;27.40;99.90;;;;;;5079072;28;20187;-68
2021/06/04 09:17:28;;;;;;;15.05;11.65;;;27.40;99.90;;;;;;5078069;28;20182;-68
2021/06/04 09:20:05;;;;;;;18.40;12.93;;;27.40;99.90;;;;;;5069295;28;20212;-68
2021/06/04 09:22:38;;;;;;;15.70;12.13;;;27.70;99.90;;;;;;5073731;28;20205;-69
2021/06/04 09:25:08;;;;;;;16.75;12.70;;;27.90;99.90;;;;;;5062378;28;20176;-69
2021/06/04 09:27:39;;;;;;;18.40;12.77;;;28.20;99.90;;;;;;5084145;28;20184;-69
2021/06/04 09:30:12;;;;;;;19.63;13.75;;;28.20;99.90;;;;;;5084281;28;20338;-68
2021/06/04 09:32:58;;;;;;;18.73;13.55;;;28.30;99.90;;;;;;5063997;28;20180;-68
2021/06/04 09:35:29;;;;;;;22.88;15.90;;;28.10;99.90;;;;;;5080537;28;20177;-68
2021/06/04 09:38:15;;;;;;;20.13;13.43;;;28.10;99.90;;;;;;5080784;28;20199;-69
2021/06/04 09:40:44;;;;;;;25.90;16.83;;;28.40;99.90;;;;;;5072125;28;20262;-67
2021/06/04 09:43:19;;;;;;;24.35;16.25;;;28.40;99.90;;;;;;5082331;28;20371;-69
2021/06/04 09:45:56;;;;;;;18.77;14.68;;;28.10;99.90;;;;;;5078557;28;20384;-69
2021/06/04 09:48:39;;;;;;;24.02;16.10;;;28.20;99.90;;;;;;5083130;28;20207;-69
2021/06/04 09:51:14;;;;;;;27.42;17.42;;;28.10;99.90;;;;;;5080043;28;20190;-68
2021/06/04 09:53:46;;;;;;;23.70;17.73;;;28.00;99.90;;;;;;5078191;28;20227;-69
2021/06/04 09:56:23;;;;;;;22.83;15.00;;;28.00;99.90;;;;;;5081381;28;20412;-69
2021/06/04 09:58:53;;;;;;;24.15;16.55;;;28.00;99.90;;;;;;5065720;28;20183;-68
2021/06/04 10:01:23;;;;;;;25.23;17.30;;;28.00;99.90;;;;;;5060152;28;20223;-68
2021/06/04 10:04:00;;;;;;;20.70;16.70;;;28.30;99.90;;;;;;5081465;28;20191;-69
2021/06/04 10:06:34;;;;;;;26.23;17.23;;;28.60;99.90;;;;;;5081016;28;20199;-69
2021/06/04 10:09:11;;;;;;;27.95;19.92;;;28.80;99.90;;;;;;5079259;28;20200;-69
2021/06/04 10:11:52;;;;;;;24.77;16.80;;;29.00;99.90;;;;;;5077646;28;20203;-69
2021/06/04 10:14:28;;;;;;;24.27;17.23;;;29.40;99.90;;;;;;5081199;28;20211;-69
2021/06/04 10:17:04;;;;;;;25.13;16.38;;;29.40;99.90;;;;;;5074487;28;20200;-68
2021/06/04 10:19:39;;;;;;;24.98;18.50;;;29.90;99.90;;;;;;5074013;28;20180;-69
2021/06/04 10:22:29;;;;;;;24.15;18.55;;;30.30;99.90;;;;;;5076749;28;20475;-69
2021/06/04 10:25:25;;;;;;;25.13;17.85;;;30.20;99.90;;;;;;5075964;28;20184;-69
2021/06/04 10:27:56;;;;;;;22.52;16.90;;;30.50;99.90;;;;;;5079200;28;20371;-69
2021/06/04 10:30:41;;;;;;;27.23;18.42;;;30.50;99.90;;;;;;5080930;28;20236;-69
2021/06/04 10:33:16;;;;;;;24.30;19.13;;;30.30;99.90;;;;;;5077065;28;20204;-69
2021/06/04 10:35:48;;;;;;;27.20;19.73;;;29.60;99.90;;;;;;5083378;28;20210;-68
2021/06/04 10:38:23;;;;;;;21.67;16.60;;;29.50;99.90;;;;;;5078690;28;20190;-68
2021/06/04 10:40:55;;;;;;;23.92;17.98;;;29.60;99.90;;;;;;5061626;28;20210;-69
2021/06/04 10:43:37;;;;;;;25.05;18.85;;;29.80;99.90;;;;;;5079314;28;20238;-69
2021/06/04 10:46:13;;;;;;;25.05;16.85;;;29.90;99.90;;;;;;5074608;28;20177;-68
2021/06/04 10:49:05;;;;;;;31.67;21.17;;;29.90;99.90;;;;;;5079277;28;20184;-68
2021/06/04 10:51:43;;;;;;;31.50;20.58;;;29.90;99.90;;;;;;5068950;28;20436;-69
2021/06/04 10:54:21;;;;;;;25.17;17.95;;;29.80;99.90;;;;;;5080094;28;20216;-69
2021/06/04 10:56:56;;;;;;;22.85;17.45;;;30.10;99.90;;;;;;5065497;28;20184;-68
2021/06/04 10:59:36;;;;;;;27.83;17.52;;;30.20;99.90;;;;;;5081524;28;20192;-68
2021/06/04 11:02:16;;;;;;;27.60;18.27;;;30.40;99.90;;;;;;5079419;28;20199;-69
2021/06/04 11:05:06;;;;;;;26.25;17.83;;;30.50;99.90;;;;;;5080958;28;20207;-69
2021/06/04 11:07:40;;;;;;;25.80;19.10;;;30.60;99.90;;;;;;5075752;28;20319;-69
2021/06/04 11:10:17;;;;;;;27.48;19.58;;;30.20;99.90;;;;;;5078152;28;20200;-69
2021/06/04 11:13:10;;;;;;;30.38;21.02;;;29.80;99.90;;;;;;5074108;28;20189;-68
2021/06/04 11:15:51;;;;;;;25.88;18.27;;;29.30;99.90;;;;;;5067982;28;20297;-67
2021/06/04 11:18:36;;;;;;;19.40;16.30;;;28.90;99.90;;;;;;5075802;28;20188;-69
2021/06/04 11:21:06;;;;;;;27.73;21.35;;;28.30;99.90;;;;;;5074544;28;20185;-69
2021/06/04 11:23:43;;;;;;;29.85;20.95;;;28.10;99.90;;;;;;5059034;28;20189;-69
2021/06/04 11:26:20;;;;;;;29.45;21.02;;;27.90;99.90;;;;;;5061622;28;20334;-68
2021/06/04 11:28:53;;;;;;;32.15;20.30;;;27.80;99.90;;;;;;5081185;28;20187;-68
2021/06/04 11:31:30;;;;;;;32.90;22.05;;;27.70;99.90;;;;;;5080387;28;20249;-69
2021/06/04 11:34:02;;;;;;;24.73;18.23;;;27.70;99.90;;;;;;5076912;28;20255;-68
2021/06/04 11:36:37;;;;;;;28.20;17.98;;;27.80;99.90;;;;;;5080115;28;20211;-68
2021/06/04 11:39:09;;;;;;;30.80;24.40;;;27.80;99.90;;;;;;5074606;28;20508;-68
2021/06/04 11:41:45;;;;;;;31.50;22.95;;;27.80;99.90;;;;;;5080997;28;20199;-68
2021/06/04 11:44:25;;;;;;;32.20;22.63;;;27.90;99.90;;;;;;5073831;28;20422;-68
2021/06/04 11:47:31;;;;;;;28.95;21.38;;;28.10;99.90;;;;;;5078799;28;20201;-69
2021/06/04 11:50:36;;;;;;;30.73;21.90;;;27.90;99.90;;;;;;5080603;28;20208;-69
2021/06/04 11:53:32;;;;;;;29.67;20.60;;;27.60;99.90;;;;;;5078703;28;20177;-64
2021/06/04 11:56:10;;;;;;;26.60;20.30;;;27.30;99.90;;;;;;5032289;28;20198;-68
2021/06/04 11:58:49;;;;;;;28.23;20.97;;;27.00;99.90;;;;;;5034333;28;20178;-68
2021/06/04 12:01:39;;;;;;;28.57;19.63;;;26.70;99.90;;;;;;5040753;28;20186;-67
2021/06/04 12:04:11;;;;;;;28.03;20.43;;;26.40;99.90;;;;;;5036161;28;20189;-69
2021/06/04 12:06:55;;;;;;;31.63;20.83;;;26.20;99.90;;;;;;5039048;28;20185;-68
2021/06/04 12:09:43;;;;;;;28.43;19.20;;;26.20;99.90;;;;;;5040865;28;20240;-68
2021/06/04 12:12:51;;;;;;;28.97;21.80;;;26.20;99.90;;;;;;5036393;28;20240;-68
2021/06/04 12:15:39;;;;;;;30.63;20.37;;;26.00;99.90;;;;;;5036438;28;20422;-68
2021/06/04 12:18:47;;;;;;;30.50;21.33;;;25.80;99.90;;;;;;5033001;28;20177;-68
2021/06/04 12:21:47;;;;;;;33.10;21.47;;;25.60;99.90;;;;;;5034977;28;20378;-68
2021/06/04 12:24:50;;;;;;;34.17;21.93;;;25.40;99.90;;;;;;5038689;28;20195;-68
2021/06/04 12:27:43;;;;;;;33.40;22.40;;;25.30;99.90;;;;;;5034594;28;20178;-68
2021/06/04 12:30:32;;;;;;;29.30;21.70;;;25.10;99.90;;;;;;5038247;28;20187;-68
2021/06/04 12:33:05;;;;;;;33.93;23.23;;;25.00;99.90;;;;;;5038506;28;20184;-68
2021/06/04 12:35:42;;;;;;;33.63;24.73;;;24.90;99.90;;;;;;5041287;28;20203;-68
2021/06/04 12:38:32;;;;;;;38.70;24.20;;;24.80;99.90;;;;;;5054736;28;20346;-66
2021/06/04 12:41:03;;;;;;;34.67;24.50;;;24.70;99.90;;;;;;5040660;28;20213;-66
2021/06/04 12:43:33;;;;;;;38.57;26.70;;;24.50;99.90;;;;;;5040577;28;20471;-66
2021/06/04 12:46:11;;;;;;;38.53;25.57;;;24.30;99.90;;;;;;5033144;28;20437;-66
2021/06/04 12:48:44;;;;;;;36.87;24.80;;;24.20;99.90;;;;;;5039552;28;20493;-66
2021/06/04 12:51:16;;;;;;;39.87;26.93;;;24.00;99.90;;;;;;5040803;28;20208;-66
2021/06/04 12:53:46;;;;;;;43.00;27.60;;;23.80;99.90;;;;;;5049882;28;20357;-66
2021/06/04 12:56:18;;;;;;;35.60;25.50;;;23.70;99.90;;;;;;5074159;28;20207;-66
2021/06/04 12:58:49;;;;;;;39.67;27.43;;;23.70;99.90;;;;;;5079909;28;20358;-67
2021/06/04 13:01:22;;;;;;;39.87;27.70;;;23.70;99.90;;;;;;5077976;28;20374;-68